sensor_id;sensor_type;location;lat;lon;timestamp;pressure;altitude;pressure_sealevel;temperature;humidity
79411;BME280;69635;50.964;6.948;2023-05-07T00:00:08;101143.78;;;14.53;84.33
79411;BME280;69635;50.964;6.948;2023-05-07T00:02:34;101151.81;;;14.51;84.20
79411;BME280;69635;50.964;6.948;2023-05-07T00:05:00;101147.38;;;14.52;84.07
79411;BME280;69635;50.964;6.948;2023-05-07T00:07:25;101149.16;;;14.51;83.81
79411;BME280;69635;50.964;6.948;2023-05-07T00:09:51;101150.00;;;14.53;83.52
79411;BME280;69635;50.964;6.948;2023-05-07T00:12:16;101152.69;;;14.52;83.42
79411;BME280;69635;50.964;6.948;2023-05-07T00:14:42;101153.56;;;14.51;84.19
79411;BME280;69635;50.964;6.948;2023-05-07T00:17:07;101139.41;;;14.47;83.76
79411;BME280;69635;50.964;6.948;2023-05-07T00:19:33;101143.88;;;14.47;83.84
79411;BME280;69635;50.964;6.948;2023-05-07T00:21:58;101139.44;;;14.46;83.94
79411;BME280;69635;50.964;6.948;2023-05-07T00:24:24;101145.66;;;14.43;84.00
79411;BME280;69635;50.964;6.948;2023-05-07T00:26:49;101147.47;;;14.43;84.30
79411;BME280;69635;50.964;6.948;2023-05-07T00:29:15;101150.16;;;14.41;85.33
79411;BME280;69635;50.964;6.948;2023-05-07T00:31:40;101139.50;;;14.41;84.32
79411;BME280;69635;50.964;6.948;2023-05-07T00:34:05;101140.38;;;14.42;85.11
79411;BME280;69635;50.964;6.948;2023-05-07T00:36:31;101138.59;;;14.42;85.37
79411;BME280;69635;50.964;6.948;2023-05-07T00:38:59;101135.94;;;14.41;85.29
79411;BME280;69635;50.964;6.948;2023-05-07T00:41:25;101132.44;;;14.39;84.78
79411;BME280;69635;50.964;6.948;2023-05-07T00:43:51;101136.84;;;14.40;85.28
79411;BME280;69635;50.964;6.948;2023-05-07T00:46:17;101131.50;;;14.40;85.33
79411;BME280;69635;50.964;6.948;2023-05-07T00:48:43;101130.69;;;14.38;85.18
79411;BME280;69635;50.964;6.948;2023-05-07T00:51:09;101134.19;;;14.38;84.82
79411;BME280;69635;50.964;6.948;2023-05-07T00:53:36;101126.22;;;14.37;85.06
79411;BME280;69635;50.964;6.948;2023-05-07T00:56:02;101133.34;;;14.38;84.91
79411;BME280;69635;50.964;6.948;2023-05-07T00:58:27;101124.50;;;14.34;84.74
79411;BME280;69635;50.964;6.948;2023-05-07T01:00:53;101135.13;;;14.36;84.98
79411;BME280;69635;50.964;6.948;2023-05-07T01:03:18;101134.22;;;14.37;84.56
79411;BME280;69635;50.964;6.948;2023-05-07T01:05:45;101120.94;;;14.35;84.65
79411;BME280;69635;50.964;6.948;2023-05-07T01:08:11;101124.47;;;14.36;84.44
79411;BME280;69635;50.964;6.948;2023-05-07T01:10:38;101122.69;;;14.35;84.47
79411;BME280;69635;50.964;6.948;2023-05-07T01:13:09;101128.03;;;14.35;84.50
79411;BME280;69635;50.964;6.948;2023-05-07T01:15:35;101129.84;;;14.31;83.99
79411;BME280;69635;50.964;6.948;2023-05-07T01:18:01;101109.47;;;14.30;83.96
79411;BME280;69635;50.964;6.948;2023-05-07T01:20:28;101121.84;;;14.31;84.52
79411;BME280;69635;50.964;6.948;2023-05-07T01:22:53;101112.06;;;14.33;84.12
79411;BME280;69635;50.964;6.948;2023-05-07T01:25:19;101111.19;;;14.33;83.86
79411;BME280;69635;50.964;6.948;2023-05-07T01:27:45;101113.84;;;14.34;83.71
79411;BME280;69635;50.964;6.948;2023-05-07T01:30:11;101112.06;;;14.33;83.57
79411;BME280;69635;50.964;6.948;2023-05-07T01:32:39;101116.53;;;14.31;84.01
79411;BME280;69635;50.964;6.948;2023-05-07T01:35:10;101116.56;;;14.28;83.96
79411;BME280;69635;50.964;6.948;2023-05-07T01:37:36;101109.47;;;14.26;83.26
79411;BME280;69635;50.964;6.948;2023-05-07T01:40:03;101117.47;;;14.24;83.79
79411;BME280;69635;50.964;6.948;2023-05-07T01:42:29;101111.25;;;14.24;83.93
79411;BME280;69635;50.964;6.948;2023-05-07T01:44:58;101112.16;;;14.23;83.44
79411;BME280;69635;50.964;6.948;2023-05-07T01:47:24;101113.06;;;14.20;83.61
79411;BME280;69635;50.964;6.948;2023-05-07T01:49:50;101107.75;;;14.19;83.64
79411;BME280;69635;50.964;6.948;2023-05-07T01:52:15;101109.56;;;14.18;83.65
79411;BME280;69635;50.964;6.948;2023-05-07T01:54:41;101098.94;;;14.15;83.28
79411;BME280;69635;50.964;6.948;2023-05-07T01:57:06;101106.91;;;14.18;83.74
79411;BME280;69635;50.964;6.948;2023-05-07T01:59:32;101112.22;;;14.18;83.39
79411;BME280;69635;50.964;6.948;2023-05-07T02:01:57;101100.75;;;14.12;83.52
79411;BME280;69635;50.964;6.948;2023-05-07T02:04:22;101096.34;;;14.08;83.49
79411;BME280;69635;50.964;6.948;2023-05-07T02:06:48;101097.28;;;14.05;83.60
79411;BME280;69635;50.964;6.948;2023-05-07T02:09:14;101099.09;;;14.02;83.93
79411;BME280;69635;50.964;6.948;2023-05-07T02:11:40;101093.81;;;13.99;83.73
79411;BME280;69635;50.964;6.948;2023-05-07T02:14:05;101100.00;;;13.98;83.32
79411;BME280;69635;50.964;6.948;2023-05-07T02:16:31;101092.09;;;13.93;84.00
79411;BME280;69635;50.964;6.948;2023-05-07T02:18:56;101096.56;;;13.86;84.76
79411;BME280;69635;50.964;6.948;2023-05-07T02:21:21;101100.16;;;13.79;84.04
79411;BME280;69635;50.964;6.948;2023-05-07T02:23:47;101101.97;;;13.76;83.91
79411;BME280;69635;50.964;6.948;2023-05-07T02:26:12;101109.06;;;13.75;85.14
79411;BME280;69635;50.964;6.948;2023-05-07T02:28:37;101110.00;;;13.71;85.01
79411;BME280;69635;50.964;6.948;2023-05-07T02:31:03;101103.84;;;13.66;85.03
79411;BME280;69635;50.964;6.948;2023-05-07T02:33:29;101110.97;;;13.64;85.43
79411;BME280;69635;50.964;6.948;2023-05-07T02:35:54;101108.28;;;13.63;85.87
79411;BME280;69635;50.964;6.948;2023-05-07T02:38:20;101105.66;;;13.61;85.59
79411;BME280;69635;50.964;6.948;2023-05-07T02:40:45;101116.28;;;13.61;85.63
79411;BME280;69635;50.964;6.948;2023-05-07T02:43:11;101118.94;;;13.64;85.46
79411;BME280;69635;50.964;6.948;2023-05-07T02:45:36;101118.94;;;13.61;85.44
79411;BME280;69635;50.964;6.948;2023-05-07T02:48:03;101122.50;;;13.60;85.50
79411;BME280;69635;50.964;6.948;2023-05-07T02:50:28;101118.91;;;13.63;85.58
79411;BME280;69635;50.964;6.948;2023-05-07T02:52:54;101114.47;;;13.65;85.62
79411;BME280;69635;50.964;6.948;2023-05-07T02:55:20;101115.38;;;13.64;85.51
79411;BME280;69635;50.964;6.948;2023-05-07T02:57:46;101118.94;;;13.64;85.14
79411;BME280;69635;50.964;6.948;2023-05-07T03:00:16;101118.94;;;13.64;85.35
79411;BME280;69635;50.964;6.948;2023-05-07T03:02:41;101116.28;;;13.64;85.14
79411;BME280;69635;50.964;6.948;2023-05-07T03:05:07;101120.66;;;13.67;85.62
79411;BME280;69635;50.964;6.948;2023-05-07T03:07:34;101118.00;;;13.68;85.56
79411;BME280;69635;50.964;6.948;2023-05-07T03:10:00;101120.66;;;13.70;84.74
79411;BME280;69635;50.964;6.948;2023-05-07T03:12:25;101114.44;;;13.69;84.89
79411;BME280;69635;50.964;6.948;2023-05-07T03:14:50;101109.16;;;13.68;85.19
79411;BME280;69635;50.964;6.948;2023-05-07T03:17:16;101118.03;;;13.65;85.18
79411;BME280;69635;50.964;6.948;2023-05-07T03:19:41;101111.81;;;13.65;84.80
79411;BME280;69635;50.964;6.948;2023-05-07T03:22:07;101110.06;;;13.64;84.99
79411;BME280;69635;50.964;6.948;2023-05-07T03:24:32;101103.91;;;13.59;84.88
79411;BME280;69635;50.964;6.948;2023-05-07T03:26:58;101101.25;;;13.56;85.43
79411;BME280;69635;50.964;6.948;2023-05-07T03:29:24;101099.56;;;13.50;85.24
79411;BME280;69635;50.964;6.948;2023-05-07T03:31:49;101098.69;;;13.45;85.84
79411;BME280;69635;50.964;6.948;2023-05-07T03:34:15;101099.63;;;13.41;85.16
79411;BME280;69635;50.964;6.948;2023-05-07T03:36:42;101098.72;;;13.41;85.96
79411;BME280;69635;50.964;6.948;2023-05-07T03:39:07;101098.75;;;13.36;84.94
79411;BME280;69635;50.964;6.948;2023-05-07T03:41:36;101097.88;;;13.37;86.09
79411;BME280;69635;50.964;6.948;2023-05-07T03:44:04;101093.50;;;13.30;85.75
79411;BME280;69635;50.964;6.948;2023-05-07T03:46:29;101098.81;;;13.30;85.39
79411;BME280;69635;50.964;6.948;2023-05-07T03:48:55;101097.91;;;13.31;85.44
79411;BME280;69635;50.964;6.948;2023-05-07T03:51:20;101099.66;;;13.31;85.96
79411;BME280;69635;50.964;6.948;2023-05-07T03:53:46;101094.41;;;13.26;85.62
79411;BME280;69635;50.964;6.948;2023-05-07T03:56:11;101104.13;;;13.27;86.02
79411;BME280;69635;50.964;6.948;2023-05-07T03:58:36;101115.69;;;13.25;85.94
79411;BME280;69635;50.964;6.948;2023-05-07T04:01:02;101109.50;;;13.23;85.69
79411;BME280;69635;50.964;6.948;2023-05-07T04:03:27;101111.28;;;13.21;85.73
79411;BME280;69635;50.964;6.948;2023-05-07T04:05:53;101111.25;;;13.22;85.70
79411;BME280;69635;50.964;6.948;2023-05-07T04:08:18;101120.06;;;13.27;85.45
79411;BME280;69635;50.964;6.948;2023-05-07T04:10:43;101114.78;;;13.29;85.51
79411;BME280;69635;50.964;6.948;2023-05-07T04:13:09;101124.50;;;13.30;85.36
79411;BME280;69635;50.964;6.948;2023-05-07T04:15:35;101131.56;;;13.34;86.33
79411;BME280;69635;50.964;6.948;2023-05-07T04:18:01;101126.19;;;13.38;86.27
79411;BME280;69635;50.964;6.948;2023-05-07T04:20:26;101129.72;;;13.42;86.34
79411;BME280;69635;50.964;6.948;2023-05-07T04:22:52;101130.56;;;13.47;85.93
79411;BME280;69635;50.964;6.948;2023-05-07T04:25:17;101129.66;;;13.51;85.69
79411;BME280;69635;50.964;6.948;2023-05-07T04:27:42;101124.28;;;13.58;85.41
79411;BME280;69635;50.964;6.948;2023-05-07T04:30:08;101123.38;;;13.62;85.54
79411;BME280;69635;50.964;6.948;2023-05-07T04:32:34;101126.00;;;13.65;85.40
79411;BME280;69635;50.964;6.948;2023-05-07T04:34:59;101121.56;;;13.67;85.27
79411;BME280;69635;50.964;6.948;2023-05-07T04:37:25;101125.06;;;13.71;85.23
79411;BME280;69635;50.964;6.948;2023-05-07T04:39:51;101113.50;;;13.76;85.22
79411;BME280;69635;50.964;6.948;2023-05-07T04:42:17;101112.59;;;13.80;85.27
79411;BME280;69635;50.964;6.948;2023-05-07T04:44:44;101118.75;;;13.84;84.94
79411;BME280;69635;50.964;6.948;2023-05-07T04:47:09;101121.34;;;13.90;84.72
79411;BME280;69635;50.964;6.948;2023-05-07T04:49:35;101118.69;;;13.93;84.37
79411;BME280;69635;50.964;6.948;2023-05-07T04:52:00;101117.75;;;13.96;84.58
79411;BME280;69635;50.964;6.948;2023-05-07T04:54:29;101122.16;;;14.00;84.53
79411;BME280;69635;50.964;6.948;2023-05-07T04:56:55;101118.59;;;14.01;83.88
79411;BME280;69635;50.964;6.948;2023-05-07T04:59:26;101130.09;;;14.03;84.35
79411;BME280;69635;50.964;6.948;2023-05-07T05:01:52;101125.66;;;14.05;84.05
79411;BME280;69635;50.964;6.948;2023-05-07T05:04:17;101132.72;;;14.07;84.10
79411;BME280;69635;50.964;6.948;2023-05-07T05:06:42;101133.59;;;14.09;83.95
79411;BME280;69635;50.964;6.948;2023-05-07T05:09:08;101144.19;;;14.12;83.72
79411;BME280;69635;50.964;6.948;2023-05-07T05:11:34;101131.78;;;14.14;83.47
79411;BME280;69635;50.964;6.948;2023-05-07T05:13:59;101130.81;;;14.20;83.32
79411;BME280;69635;50.964;6.948;2023-05-07T05:16:25;101126.38;;;14.22;83.45
79411;BME280;69635;50.964;6.948;2023-05-07T05:18:51;101130.72;;;14.32;83.46
79411;BME280;69635;50.964;6.948;2023-05-07T05:21:20;101129.75;;;14.39;82.44
79411;BME280;69635;50.964;6.948;2023-05-07T05:23:46;101132.31;;;14.48;82.30
79411;BME280;69635;50.964;6.948;2023-05-07T05:26:11;101133.19;;;14.50;81.60
79411;BME280;69635;50.964;6.948;2023-05-07T05:28:36;101130.47;;;14.54;81.46
79411;BME280;69635;50.964;6.948;2023-05-07T05:31:02;101134.81;;;14.63;81.58
79411;BME280;69635;50.964;6.948;2023-05-07T05:33:27;101131.28;;;14.59;80.86
79411;BME280;69635;50.964;6.948;2023-05-07T05:35:55;101140.09;;;14.66;80.68
79411;BME280;69635;50.964;6.948;2023-05-07T05:38:21;101141.81;;;14.68;80.96
79411;BME280;69635;50.964;6.948;2023-05-07T05:40:46;101138.28;;;14.69;80.95
79411;BME280;69635;50.964;6.948;2023-05-07T05:43:13;101137.38;;;14.70;80.23
79411;BME280;69635;50.964;6.948;2023-05-07T05:45:39;101138.22;;;14.72;80.60
79411;BME280;69635;50.964;6.948;2023-05-07T05:48:04;101134.66;;;14.75;80.28
79411;BME280;69635;50.964;6.948;2023-05-07T05:50:30;101134.66;;;14.75;80.25
79411;BME280;69635;50.964;6.948;2023-05-07T05:52:55;101141.66;;;14.83;80.22
79411;BME280;69635;50.964;6.948;2023-05-07T05:55:21;101141.59;;;14.88;79.71
79411;BME280;69635;50.964;6.948;2023-05-07T05:57:47;101138.91;;;14.91;79.81
79411;BME280;69635;50.964;6.948;2023-05-07T06:00:13;101141.44;;;15.00;79.40
79411;BME280;69635;50.964;6.948;2023-05-07T06:02:38;101137.84;;;15.03;79.46
79411;BME280;69635;50.964;6.948;2023-05-07T06:05:04;101155.41;;;15.17;79.42
79411;BME280;69635;50.964;6.948;2023-05-07T06:07:30;101150.91;;;15.21;79.29
79411;BME280;69635;50.964;6.948;2023-05-07T06:09:55;101159.69;;;15.30;79.24
79411;BME280;69635;50.964;6.948;2023-05-07T06:12:21;101156.03;;;15.36;78.33
79411;BME280;69635;50.964;6.948;2023-05-07T06:14:46;101159.50;;;15.44;77.91
79411;BME280;69635;50.964;6.948;2023-05-07T06:17:12;101154.88;;;15.55;78.30
79411;BME280;69635;50.964;6.948;2023-05-07T06:19:38;101153.97;;;15.56;76.86
79411;BME280;69635;50.964;6.948;2023-05-07T06:22:03;101153.06;;;15.58;76.25
79411;BME280;69635;50.964;6.948;2023-05-07T06:24:29;101151.91;;;15.74;76.65
79411;BME280;69635;50.964;6.948;2023-05-07T06:26:54;101155.28;;;15.85;76.57
79411;BME280;69635;50.964;6.948;2023-05-07T06:29:20;101156.03;;;15.93;75.40
79411;BME280;69635;50.964;6.948;2023-05-07T06:31:45;101153.22;;;16.01;75.89
79411;BME280;69635;50.964;6.948;2023-05-07T06:34:10;101156.59;;;16.12;75.16
79411;BME280;69635;50.964;6.948;2023-05-07T06:36:40;101163.59;;;16.19;74.75
79411;BME280;69635;50.964;6.948;2023-05-07T06:39:05;101163.53;;;16.22;74.03
79411;BME280;69635;50.964;6.948;2023-05-07T06:41:30;101167.13;;;16.21;74.48
79411;BME280;69635;50.964;6.948;2023-05-07T06:43:56;101163.44;;;16.28;74.48
79411;BME280;69635;50.964;6.948;2023-05-07T06:46:21;101163.25;;;16.37;73.67
79411;BME280;69635;50.964;6.948;2023-05-07T06:48:46;101156.91;;;16.44;73.46
79411;BME280;69635;50.964;6.948;2023-05-07T06:51:12;101172.69;;;16.59;73.55
79411;BME280;69635;50.964;6.948;2023-05-07T06:53:37;101169.00;;;16.63;72.19
79411;BME280;69635;50.964;6.948;2023-05-07T06:56:03;101169.69;;;16.74;72.48
79411;BME280;69635;50.964;6.948;2023-05-07T06:58:28;101157.97;;;16.81;72.08
79411;BME280;69635;50.964;6.948;2023-05-07T07:00:53;101157.03;;;16.84;72.84
79411;BME280;69635;50.964;6.948;2023-05-07T07:03:19;101158.56;;;16.95;72.09
79411;BME280;69635;50.964;6.948;2023-05-07T07:05:45;101167.34;;;17.02;70.77
79411;BME280;69635;50.964;6.948;2023-05-07T07:08:10;101163.47;;;17.15;71.93
79411;BME280;69635;50.964;6.948;2023-05-07T07:10:36;101159.66;;;17.27;71.23
79411;BME280;69635;50.964;6.948;2023-05-07T07:13:01;101170.19;;;17.33;70.38
79411;BME280;69635;50.964;6.948;2023-05-07T07:15:26;101174.38;;;17.46;70.37
79411;BME280;69635;50.964;6.948;2023-05-07T07:17:52;101177.13;;;17.43;68.38
79411;BME280;69635;50.964;6.948;2023-05-07T07:20:17;101171.59;;;17.52;69.10
79411;BME280;69635;50.964;6.948;2023-05-07T07:22:43;101176.75;;;17.61;68.86
79411;BME280;69635;50.964;6.948;2023-05-07T07:25:09;101180.28;;;17.61;68.14
79411;BME280;69635;50.964;6.948;2023-05-07T07:27:36;101177.56;;;17.64;67.36
79411;BME280;69635;50.964;6.948;2023-05-07T07:30:01;101170.88;;;17.82;67.81
79411;BME280;69635;50.964;6.948;2023-05-07T07:32:26;101176.13;;;17.85;67.93
79411;BME280;69635;50.964;6.948;2023-05-07T07:34:52;101178.69;;;17.91;67.60
79411;BME280;69635;50.964;6.948;2023-05-07T07:37:17;101165.13;;;17.97;67.81
79411;BME280;69635;50.964;6.948;2023-05-07T07:39:43;101176.69;;;17.99;67.90
79411;BME280;69635;50.964;6.948;2023-05-07T07:42:08;101178.31;;;18.04;67.95
79411;BME280;69635;50.964;6.948;2023-05-07T07:44:36;101178.09;;;18.14;67.92
79411;BME280;69635;50.964;6.948;2023-05-07T07:47:02;101168.91;;;18.24;67.84
79411;BME280;69635;50.964;6.948;2023-05-07T07:49:27;101173.19;;;18.31;67.24
79411;BME280;69635;50.964;6.948;2023-05-07T07:51:52;101188.13;;;18.41;66.63
79411;BME280;69635;50.964;6.948;2023-05-07T07:54:18;101194.19;;;18.49;67.02
79411;BME280;69635;50.964;6.948;2023-05-07T07:56:43;101189.53;;;18.55;66.28
79411;BME280;69635;50.964;6.948;2023-05-07T07:59:09;101186.50;;;18.67;66.08
79411;BME280;69635;50.964;6.948;2023-05-07T08:01:34;101190.75;;;18.74;65.89
79411;BME280;69635;50.964;6.948;2023-05-07T08:04:00;101179.84;;;18.82;65.27
79411;BME280;69635;50.964;6.948;2023-05-07T08:06:25;101185.81;;;18.91;65.57
79411;BME280;69635;50.964;6.948;2023-05-07T08:08:51;101181.25;;;18.95;64.91
79411;BME280;69635;50.964;6.948;2023-05-07T08:11:17;101168.84;;;18.91;64.15
79411;BME280;69635;50.964;6.948;2023-05-07T08:13:42;101182.56;;;19.11;64.95
79411;BME280;69635;50.964;6.948;2023-05-07T08:16:08;101178.78;;;19.18;63.10
79411;BME280;69635;50.964;6.948;2023-05-07T08:18:33;101188.41;;;19.25;63.85
79411;BME280;69635;50.964;6.948;2023-05-07T08:20:59;101182.94;;;19.28;63.74
79411;BME280;69635;50.964;6.948;2023-05-07T08:23:24;101185.31;;;19.39;63.58
79411;BME280;69635;50.964;6.948;2023-05-07T08:25:49;101181.22;;;19.55;62.92
79411;BME280;69635;50.964;6.948;2023-05-07T08:28:16;101183.19;;;19.50;61.96
79411;BME280;69635;50.964;6.948;2023-05-07T08:30:41;101197.09;;;19.62;61.54
79411;BME280;69635;50.964;6.948;2023-05-07T08:33:08;101191.72;;;19.62;61.73
79411;BME280;69635;50.964;6.948;2023-05-07T08:35:33;101185.78;;;19.80;62.47
79411;BME280;69635;50.964;6.948;2023-05-07T08:37:59;101194.09;;;19.99;62.41
79411;BME280;69635;50.964;6.948;2023-05-07T08:40:26;101197.97;;;20.18;63.11
79411;BME280;69635;50.964;6.948;2023-05-07T08:42:52;101202.22;;;20.25;60.64
79411;BME280;69635;50.964;6.948;2023-05-07T08:45:19;101200.44;;;20.50;61.56
79411;BME280;69635;50.964;6.948;2023-05-07T08:47:47;101199.69;;;20.47;59.50
79411;BME280;69635;50.964;6.948;2023-05-07T08:50:13;101181.63;;;20.50;60.15
79411;BME280;69635;50.964;6.948;2023-05-07T08:52:40;101186.81;;;20.55;59.58
79411;BME280;69635;50.964;6.948;2023-05-07T08:55:06;101189.44;;;20.58;58.82
79411;BME280;69635;50.964;6.948;2023-05-07T08:57:32;101189.03;;;20.68;58.31
79411;BME280;69635;50.964;6.948;2023-05-07T08:59:57;101186.44;;;20.65;58.82
79411;BME280;69635;50.964;6.948;2023-05-07T09:02:23;101183.25;;;20.54;59.50
79411;BME280;69635;50.964;6.948;2023-05-07T09:04:48;101188.41;;;20.60;59.01
79411;BME280;69635;50.964;6.948;2023-05-07T09:07:14;101186.75;;;20.58;58.87
79411;BME280;69635;50.964;6.948;2023-05-07T09:09:39;101185.94;;;20.54;59.57
79411;BME280;69635;50.964;6.948;2023-05-07T09:12:05;101184.31;;;20.50;59.16
79411;BME280;69635;50.964;6.948;2023-05-07T09:14:30;101184.25;;;20.52;59.55
79411;BME280;69635;50.964;6.948;2023-05-07T09:16:56;101171.91;;;20.46;59.02
79411;BME280;69635;50.964;6.948;2023-05-07T09:19:23;101177.03;;;20.54;59.56
79411;BME280;69635;50.964;6.948;2023-05-07T09:21:48;101176.25;;;20.50;59.14
79411;BME280;69635;50.964;6.948;2023-05-07T09:24:15;101181.38;;;20.56;58.64
79411;BME280;69635;50.964;6.948;2023-05-07T09:26:41;101187.59;;;20.58;58.13
79411;BME280;69635;50.964;6.948;2023-05-07T09:29:07;101178.22;;;20.70;57.98
79411;BME280;69635;50.964;6.948;2023-05-07T09:31:36;101182.44;;;20.77;56.73
79411;BME280;69635;50.964;6.948;2023-05-07T09:34:04;101176.88;;;20.81;56.94
79411;BME280;69635;50.964;6.948;2023-05-07T09:36:31;101180.53;;;20.80;55.96
79411;BME280;69635;50.964;6.948;2023-05-07T09:38:59;101176.69;;;20.87;56.44
79411;BME280;69635;50.964;6.948;2023-05-07T09:41:24;101173.44;;;20.78;56.91
79411;BME280;69635;50.964;6.948;2023-05-07T09:43:54;101184.63;;;20.90;57.49
79411;BME280;69635;50.964;6.948;2023-05-07T09:46:25;101181.50;;;21.02;56.86
79411;BME280;69635;50.964;6.948;2023-05-07T09:48:53;101182.22;;;21.07;57.15
79411;BME280;69635;50.964;6.948;2023-05-07T09:51:29;101175.84;;;21.10;58.01
79411;BME280;69635;50.964;6.948;2023-05-07T09:53:56;101177.06;;;21.01;55.74
79411;BME280;69635;50.964;6.948;2023-05-07T09:56:25;101168.34;;;20.95;55.75
79411;BME280;69635;50.964;6.948;2023-05-07T09:58:52;101176.56;;;20.90;55.72
79411;BME280;69635;50.964;6.948;2023-05-07T10:01:19;101169.44;;;20.89;55.30
79411;BME280;69635;50.964;6.948;2023-05-07T10:03:48;101171.75;;;21.00;57.70
79411;BME280;69635;50.964;6.948;2023-05-07T10:06:15;101176.47;;;20.93;55.80
79411;BME280;69635;50.964;6.948;2023-05-07T10:08:42;101162.41;;;20.85;55.92
79411;BME280;69635;50.964;6.948;2023-05-07T10:11:09;101163.78;;;20.97;56.74
79411;BME280;69635;50.964;6.948;2023-05-07T10:13:35;101163.63;;;21.01;54.70
79411;BME280;69635;50.964;6.948;2023-05-07T10:16:03;101159.41;;;21.18;55.53
79411;BME280;69635;50.964;6.948;2023-05-07T10:18:30;101168.72;;;21.32;54.89
79411;BME280;69635;50.964;6.948;2023-05-07T10:20:59;101166.03;;;21.32;53.70
79411;BME280;69635;50.964;6.948;2023-05-07T10:23:27;101149.44;;;21.43;55.12
79411;BME280;69635;50.964;6.948;2023-05-07T10:25:52;101157.63;;;21.63;54.01
79411;BME280;69635;50.964;6.948;2023-05-07T10:28:20;101159.22;;;21.67;52.80
79411;BME280;69635;50.964;6.948;2023-05-07T10:33:24;101163.03;;;21.84;52.79
79411;BME280;69635;50.964;6.948;2023-05-07T10:35:51;101166.59;;;21.85;53.04
79411;BME280;69635;50.964;6.948;2023-05-07T10:38:20;101164.16;;;21.79;52.51
79411;BME280;69635;50.964;6.948;2023-05-07T10:40:46;101171.28;;;21.80;52.33
79411;BME280;69635;50.964;6.948;2023-05-07T10:43:11;101163.03;;;21.84;52.18
79411;BME280;69635;50.964;6.948;2023-05-07T10:45:37;101160.34;;;21.84;50.03
79411;BME280;69635;50.964;6.948;2023-05-07T10:50:34;101159.91;;;22.15;50.78
79411;BME280;69635;50.964;6.948;2023-05-07T10:53:21;101159.84;;;22.38;49.88
79411;BME280;69635;50.964;6.948;2023-05-07T10:56:24;101155.19;;;22.62;49.53
79411;BME280;69635;50.964;6.948;2023-05-07T10:58:37;101148.78;;;22.64;49.48
79411;BME280;69635;50.964;6.948;2023-05-07T11:01:03;101149.78;;;22.82;48.79
79411;BME280;69635;50.964;6.948;2023-05-07T11:03:29;101150.44;;;22.87;48.84
79411;BME280;69635;50.964;6.948;2023-05-07T11:06:15;101143.41;;;23.03;46.79
79411;BME280;69635;50.964;6.948;2023-05-07T11:08:57;101147.94;;;23.21;46.31
79411;BME280;69635;50.964;6.948;2023-05-07T11:11:47;101146.81;;;23.06;46.03
79411;BME280;69635;50.964;6.948;2023-05-07T11:14:51;101150.16;;;23.32;46.76
79411;BME280;69635;50.964;6.948;2023-05-07T11:17:19;101142.97;;;23.51;46.83
79411;BME280;69635;50.964;6.948;2023-05-07T11:19:56;101147.75;;;23.44;46.69
79411;BME280;69635;50.964;6.948;2023-05-07T11:25:00;101136.38;;;23.38;45.13
79411;BME280;69635;50.964;6.948;2023-05-07T11:27:26;101152.22;;;23.06;45.83
79411;BME280;69635;50.964;6.948;2023-05-07T11:29:52;101133.63;;;23.19;46.12
79411;BME280;69635;50.964;6.948;2023-05-07T11:32:29;101141.47;;;23.25;44.84
79411;BME280;69635;50.964;6.948;2023-05-07T11:34:55;101132.31;;;23.28;43.64
79411;BME280;69635;50.964;6.948;2023-05-07T11:37:22;101137.72;;;23.28;42.68
79411;BME280;69635;50.964;6.948;2023-05-07T11:39:48;101143.44;;;23.22;42.81
79411;BME280;69635;50.964;6.948;2023-05-07T11:44:54;101135.91;;;23.28;41.72
79411;BME280;69635;50.964;6.948;2023-05-07T11:47:20;101131.47;;;23.27;42.87
79411;BME280;69635;50.964;6.948;2023-05-07T11:49:50;101130.50;;;23.28;42.24
79411;BME280;69635;50.964;6.948;2023-05-07T11:52:17;101128.66;;;23.30;42.84
79411;BME280;69635;50.964;6.948;2023-05-07T11:54:53;101132.09;;;23.13;42.26
79411;BME280;69635;50.964;6.948;2023-05-07T11:57:20;101141.50;;;23.05;42.80
79411;BME280;69635;50.964;6.948;2023-05-07T11:59:46;101125.13;;;23.09;42.68
79411;BME280;69635;50.964;6.948;2023-05-07T12:02:15;101135.31;;;23.03;41.53
79411;BME280;69635;50.964;6.948;2023-05-07T12:04:40;101135.53;;;23.17;43.31
79411;BME280;69635;50.964;6.948;2023-05-07T12:07:14;101143.84;;;23.33;44.75
79411;BME280;69635;50.964;6.948;2023-05-07T12:09:41;101136.03;;;23.45;44.45
79411;BME280;69635;50.964;6.948;2023-05-07T12:12:07;101140.97;;;23.36;43.31
79411;BME280;69635;50.964;6.948;2023-05-07T12:14:32;101133.25;;;23.47;43.64
79411;BME280;69635;50.964;6.948;2023-05-07T12:16:59;101138.19;;;23.56;44.19
79411;BME280;69635;50.964;6.948;2023-05-07T12:19:29;101145.94;;;23.63;43.66
79411;BME280;69635;50.964;6.948;2023-05-07T12:21:55;101148.47;;;23.66;42.36
79411;BME280;69635;50.964;6.948;2023-05-07T12:24:21;101141.66;;;23.76;43.43
79411;BME280;69635;50.964;6.948;2023-05-07T12:26:47;101145.28;;;23.94;44.41
79411;BME280;69635;50.964;6.948;2023-05-07T12:29:13;101145.81;;;24.02;43.84
79411;BME280;69635;50.964;6.948;2023-05-07T12:31:43;101146.69;;;24.02;42.87
79411;BME280;69635;50.964;6.948;2023-05-07T12:34:11;101150.19;;;23.86;41.61
79411;BME280;69635;50.964;6.948;2023-05-07T12:36:40;101135.31;;;23.77;41.83
79411;BME280;69635;50.964;6.948;2023-05-07T12:39:08;101143.19;;;23.82;44.58
79411;BME280;69635;50.964;6.948;2023-05-07T12:41:54;101147.78;;;23.80;44.69
79411;BME280;69635;50.964;6.948;2023-05-07T12:44:24;101146.50;;;23.70;44.15
79411;BME280;69635;50.964;6.948;2023-05-07T12:46:49;101136.50;;;23.53;43.93
79411;BME280;69635;50.964;6.948;2023-05-07T12:49:15;101147.84;;;23.43;43.70
79411;BME280;69635;50.964;6.948;2023-05-07T12:51:41;101140.75;;;23.40;44.07
79411;BME280;69635;50.964;6.948;2023-05-07T12:54:06;101147.94;;;23.21;43.03
79411;BME280;69635;50.964;6.948;2023-05-07T12:56:35;101147.28;;;23.16;44.67